Time;durP1;ratioP1;P1;durP2;ratioP2;P2;SDS_P1;SDS_P2;PMS_P1;PMS_P2;Temp;Humidity;BMP_temperature;BMP_pressure;BME280_temperature;BME280_humidity;BME280_pressure;Samples;Min_cycle;Max_cycle;Signal;HPM_P1;HPM_P2
2022/01/13 00:01:22;;;;;;;37.97;16.95;;;;;;;1.65;97.64;104013.59;4993705;28;20427;-74
2022/01/13 00:03:48;;;;;;;35.67;16.73;;;;;;;1.65;97.57;104010.94;5007474;28;20542;-74
2022/01/13 00:06:13;;;;;;;61.35;18.55;;;;;;;1.63;97.06;104006.53;4993546;28;20038;-74
2022/01/13 00:08:38;;;;;;;42.08;18.25;;;;;;;1.60;97.10;104010.00;5007576;28;20033;-73
2022/01/13 00:11:03;;;;;;;70.93;18.42;;;;;;;1.60;97.42;104017.97;5007294;28;20515;-73
2022/01/13 00:13:43;;;;;;;73.65;20.38;;;;;;;1.62;97.38;104020.63;5007851;28;20050;-73
2022/01/13 00:18:51;;;;;;;79.63;22.50;;;;;;;1.59;97.71;104024.13;5010623;28;20116;-73
2022/01/13 00:21:35;;;;;;;57.15;17.27;;;;;;;1.59;97.64;104021.47;5002267;28;20030;-73
2022/01/13 00:24:02;;;;;;;42.28;16.98;;;;;;;1.61;97.54;104014.44;5012544;28;20030;-73
2022/01/13 00:26:29;;;;;;;50.80;19.13;;;;;;;1.60;97.73;104014.41;5000757;28;20034;-73
2022/01/13 00:28:57;;;;;;;80.60;19.85;;;;;;;1.57;98.05;104021.44;5012001;28;20026;-73
2022/01/13 00:31:31;;;;;;;49.45;17.42;;;;;;;1.58;97.79;104022.31;5019976;28;20042;-73
2022/01/13 00:33:58;;;;;;;76.10;18.42;;;;;;;1.59;97.89;104020.59;5021639;28;20036;-73
2022/01/13 00:36:29;;;;;;;44.70;18.25;;;;;;;1.57;97.71;104021.44;5026759;28;20102;-73
2022/01/13 00:38:55;;;;;;;54.13;18.48;;;;;;;1.59;97.62;104024.13;5011669;28;20032;-73
2022/01/13 00:41:21;;;;;;;32.70;17.27;;;;;;;1.59;97.82;104024.13;5005158;28;20554;-73
2022/01/13 00:43:47;;;;;;;76.75;18.08;;;;;;;1.57;97.65;104023.22;5011007;28;20524;-73
2022/01/13 00:46:25;;;;;;;58.17;17.80;;;;;;;1.60;98.10;104025.91;4993021;28;20074;-73
2022/01/13 00:48:52;;;;;;;52.60;19.35;;;;;;;1.60;97.72;104015.31;4994110;28;20022;-73
2022/01/13 00:51:19;;;;;;;39.95;16.40;;;;;;;1.58;97.40;104014.38;5015356;28;20132;-73
2022/01/13 00:53:44;;;;;;;41.10;18.70;;;;;;;1.58;97.48;104011.72;5010085;28;20669;-73
2022/01/13 00:56:10;;;;;;;41.08;16.02;;;;;;;1.53;96.69;104008.13;5011281;28;20113;-73
2022/01/13 00:58:36;;;;;;;45.63;16.23;;;;;;;1.53;96.64;104018.72;5012735;28;20037;-73
2022/01/13 01:01:05;;;;;;;44.78;17.15;;;;;;;1.48;96.85;104017.75;5006578;28;20861;-73
2022/01/13 01:03:31;;;;;;;54.90;15.87;;;;;;;1.47;97.19;104006.28;5011156;28;20101;-74
2022/01/13 01:05:57;;;;;;;59.83;15.45;;;;;;;1.48;97.47;104007.16;5010320;28;20549;-73
2022/01/13 01:08:23;;;;;;;62.47;15.68;;;;;;;1.44;97.26;104003.56;5011829;28;20398;-73
2022/01/13 01:10:50;;;;;;;50.75;16.85;;;;;;;1.46;97.72;104006.25;5010848;28;20425;-73
2022/01/13 01:13:21;;;;;;;51.97;14.98;;;;;;;1.43;97.89;104008.84;4992804;28;20096;-73
2022/01/13 01:15:51;;;;;;;64.47;19.83;;;;;;;1.43;97.92;104004.44;4993565;28;20389;-73
2022/01/13 01:26:37;;;;;;;45.08;15.70;;;;;;;1.43;98.04;103995.59;5010378;28;20029;-73
2022/01/13 01:32:08;;;;;;;69.20;16.58;;;;;;;1.45;97.69;104013.31;4969910;28;20072;-73
2022/01/13 01:34:52;;;;;;;44.72;17.35;;;;;;;1.40;97.04;104012.34;4992322;28;20413;-73
2022/01/13 01:37:19;;;;;;;53.90;15.43;;;;;;;1.36;97.17;104014.06;4998927;28;20048;-73
2022/01/13 01:39:47;;;;;;;40.58;13.82;;;;;;;1.37;96.97;104017.59;5011198;28;20420;-73
2022/01/13 01:42:13;;;;;;;31.77;13.32;;;;;;;1.34;97.26;104012.25;5009342;28;20046;-73
2022/01/13 01:44:43;;;;;;;54.47;16.15;;;;;;;1.34;96.99;104010.47;5009716;28;20054;-73
2022/01/13 01:47:13;;;;;;;46.25;14.02;;;;;;;1.31;97.42;104013.06;4997956;28;20041;-73
2022/01/13 01:49:41;;;;;;;44.13;15.38;;;;;;;1.33;97.14;104003.41;5002200;28;20033;-73
2022/01/13 01:52:09;;;;;;;35.03;14.23;;;;;;;1.31;97.64;103996.28;5012896;28;20072;-73
2022/01/13 01:54:35;;;;;;;37.53;14.68;;;;;;;1.28;97.26;103996.25;5009479;28;20147;-73
2022/01/13 01:57:00;;;;;;;40.70;13.00;;;;;;;1.28;97.31;103996.25;5008838;28;20117;-73
2022/01/13 01:59:30;;;;;;;43.60;15.27;;;;;;;1.26;97.76;103990.00;4992568;28;20442;-73
2022/01/13 02:01:56;;;;;;;50.08;14.18;;;;;;;1.26;97.59;103992.66;5010537;28;20034;-74
2022/01/13 02:04:24;;;;;;;43.58;12.80;;;;;;;1.28;97.54;103993.59;5008169;28;20084;-74
2022/01/13 02:06:50;;;;;;;35.10;12.57;;;;;;;1.28;97.70;103990.94;5009630;28;20045;-74
2022/01/13 02:09:17;;;;;;;38.75;14.30;;;;;;;1.30;97.88;103990.09;4992681;28;20476;-74
2022/01/13 02:11:47;;;;;;;42.92;14.20;;;;;;;1.29;97.14;103987.41;4998187;28;20081;-73
2022/01/13 02:17:06;;;;;;;31.58;12.32;;;;;;;1.29;98.06;103993.63;5010385;28;20037;-73
2022/01/13 02:19:34;;;;;;;66.60;13.23;;;;;;;1.30;97.59;103995.38;5004559;28;20021;-73
2022/01/13 02:22:00;;;;;;;53.42;13.32;;;;;;;1.28;97.89;103997.13;5008228;28;20454;-73
2022/01/13 02:24:27;;;;;;;62.92;13.63;;;;;;;1.28;97.85;104002.44;5008618;28;20131;-73
2022/01/13 02:26:53;;;;;;;35.42;12.18;;;;;;;1.30;98.22;104013.06;5015742;28;20029;-73
2022/01/13 02:29:18;;;;;;;59.58;14.25;;;;;;;1.28;97.59;104007.72;5007060;28;20037;-73
2022/01/13 02:31:43;;;;;;;29.33;11.85;;;;;;;1.31;97.62;104012.19;5012976;28;20475;-73
2022/01/13 02:34:09;;;;;;;57.45;13.88;;;;;;;1.33;98.35;104008.72;5008512;28;20145;-73
2022/01/13 02:36:36;;;;;;;31.63;12.82;;;;;;;1.32;98.24;104006.91;5012810;28;20449;-73
2022/01/13 02:39:04;;;;;;;50.45;14.88;;;;;;;1.33;97.71;103998.13;5008033;28;20026;-73
2022/01/13 02:41:29;;;;;;;34.90;13.68;;;;;;;1.36;97.95;103992.84;4990208;28;20021;-73
2022/01/13 02:43:58;;;;;;;38.05;13.40;;;;;;;1.37;97.63;103994.63;4990997;28;20047;-73
2022/01/13 02:49:05;;;;;;;39.25;12.38;;;;;;;1.38;97.52;103993.75;5009210;28;20046;-73
2022/01/13 02:51:31;;;;;;;43.60;12.93;;;;;;;1.34;97.84;103994.56;5008182;28;20032;-73
2022/01/13 02:53:56;;;;;;;68.97;15.30;;;;;;;1.31;97.69;103994.53;5008556;28;20510;-73
2022/01/13 02:56:21;;;;;;;34.92;12.02;;;;;;;1.33;97.85;103994.53;5006387;28;20498;-73
2022/01/13 02:58:47;;;;;;;96.38;14.60;;;;;;;1.31;97.90;104002.47;5009449;28;20040;-73
2022/01/13 03:01:14;;;;;;;36.63;14.10;;;;;;;1.29;97.91;104003.31;5008220;28;20030;-73
2022/01/13 03:03:40;;;;;;;42.97;16.13;;;;;;;1.27;97.99;104000.63;5007807;28;20033;-74
2022/01/13 03:06:11;;;;;;;61.75;15.48;;;;;;;1.22;97.97;104000.56;4991850;28;20112;-74
2022/01/13 03:08:38;;;;;;;49.63;14.70;;;;;;;1.23;98.25;103998.81;4991865;28;20108;-73
2022/01/13 03:11:04;;;;;;;40.75;14.35;;;;;;;1.22;98.04;103997.91;5008057;28;20045;-73
2022/01/13 03:13:30;;;;;;;54.72;16.80;;;;;;;1.25;98.22;103990.91;5007675;28;20034;-73
2022/01/13 03:15:56;;;;;;;54.90;16.27;;;;;;;1.21;98.08;103987.28;5008386;28;20030;-73
2022/01/13 03:18:21;;;;;;;46.67;15.30;;;;;;;1.20;97.71;103978.47;5013010;28;20072;-73
2022/01/13 03:20:46;;;;;;;57.17;16.02;;;;;;;1.17;97.56;103974.84;5013472;28;20083;-73
2022/01/13 03:23:16;;;;;;;46.50;15.27;;;;;;;1.18;97.87;103989.91;5023257;28;20056;-73
2022/01/13 03:25:44;;;;;;;60.40;16.42;;;;;;;1.20;97.54;103975.81;5008643;28;20030;-73
2022/01/13 03:28:15;;;;;;;76.53;19.27;;;;;;;1.22;97.76;103979.38;4995414;28;20375;-73
2022/01/13 03:30:40;;;;;;;36.97;16.13;;;;;;;1.24;97.31;103974.09;5010012;28;20029;-73
2022/01/13 03:33:06;;;;;;;51.08;15.57;;;;;;;1.25;97.57;103981.19;5007432;28;20048;-73
2022/01/13 03:35:31;;;;;;;50.05;16.85;;;;;;;1.24;97.37;103976.75;5007435;28;20026;-73
2022/01/13 03:37:58;;;;;;;77.15;19.08;;;;;;;1.24;97.30;103984.69;5002104;28;20105;-73
2022/01/13 03:40:23;;;;;;;49.45;17.17;;;;;;;1.25;97.50;103978.53;5005393;28;20034;-73
2022/01/13 03:42:52;;;;;;;52.83;16.80;;;;;;;1.26;97.59;103974.13;5005858;28;20022;-73
2022/01/13 03:45:18;;;;;;;79.15;20.85;;;;;;;1.29;98.16;103977.72;5005946;28;20095;-73
2022/01/13 03:47:43;;;;;;;58.97;18.35;;;;;;;1.31;98.15;103975.97;5003642;28;20029;-73
2022/01/13 03:50:08;;;;;;;51.47;19.33;;;;;;;1.30;97.70;103976.84;5000048;28;20053;-73
2022/01/13 03:52:33;;;;;;;40.65;16.92;;;;;;;1.29;97.57;103976.81;5001614;28;20030;-73
2022/01/13 03:55:30;;;;;;;78.32;18.30;;;;;;;1.32;97.90;103966.28;5004389;28;20030;-73
2022/01/13 03:58:34;;;;;;;60.10;17.30;;;;;;;1.33;98.12;103968.97;5002000;28;20064;-73
2022/01/13 04:01:26;;;;;;;43.13;16.80;;;;;;;1.33;98.34;103968.97;5010441;28;20397;-73
2022/01/13 04:03:51;;;;;;;59.13;20.33;;;;;;;1.32;98.26;103975.13;5002823;28;20494;-74
2022/01/13 04:06:17;;;;;;;77.95;20.02;;;;;;;1.31;97.58;103972.44;5010922;28;20159;-74
2022/01/13 04:08:46;;;;;;;51.63;18.52;;;;;;;1.29;98.13;103968.88;5006940;28;20036;-74
2022/01/13 04:11:37;;;;;;;52.43;17.83;;;;;;;1.28;98.27;103965.34;5007366;28;20030;-74
2022/01/13 04:14:05;;;;;;;66.25;19.50;;;;;;;1.26;97.81;103964.44;4999614;28;20053;-73
2022/01/13 04:16:33;;;;;;;42.85;17.38;;;;;;;1.25;97.80;103965.28;5007186;28;20383;-73
2022/01/13 04:19:04;;;;;;;78.20;20.75;;;;;;;1.25;98.46;103965.28;5006547;28;20053;-73
2022/01/13 04:21:32;;;;;;;53.10;16.90;;;;;;;1.23;97.95;103967.03;4997086;28;20038;-73
2022/01/13 04:23:58;;;;;;;34.45;15.45;;;;;;;1.22;98.17;103970.53;5009520;28;20065;-73
2022/01/13 04:26:29;;;;;;;74.63;18.85;;;;;;;1.19;98.20;103965.19;5007787;28;20469;-73
2022/01/13 04:29:05;;;;;;;66.13;18.52;;;;;;;1.21;98.19;103974.03;5006982;28;20125;-73
2022/01/13 04:31:31;;;;;;;52.95;16.85;;;;;;;1.18;98.09;103972.22;4989520;28;20099;-73
2022/01/13 04:33:56;;;;;;;41.17;17.30;;;;;;;1.17;97.76;103966.91;4989820;28;20853;-73
2022/01/13 04:36:21;;;;;;;41.72;19.23;;;;;;;1.19;97.75;103968.72;5006544;28;20092;-73
2022/01/13 04:38:47;;;;;;;38.17;17.58;;;;;;;1.21;98.01;103958.16;4990352;28;20099;-73
2022/01/13 04:41:14;;;;;;;66.95;18.75;;;;;;;1.22;97.56;103957.28;5002888;28;20458;-73
2022/01/13 04:43:40;;;;;;;42.65;18.48;;;;;;;1.22;97.76;103955.53;5007423;28;20037;-73
2022/01/13 04:46:05;;;;;;;57.72;19.92;;;;;;;1.24;97.70;103950.25;5007093;28;20092;-73
2022/01/13 04:48:30;;;;;;;42.25;17.33;;;;;;;1.24;97.92;103955.53;5007000;28;20472;-73
2022/01/13 04:50:56;;;;;;;47.75;21.00;;;;;;;1.24;97.77;103952.91;4990566;28;20038;-73
2022/01/13 04:53:21;;;;;;;48.22;18.73;;;;;;;1.25;98.45;103957.34;5005323;28;20065;-73
2022/01/13 04:55:51;;;;;;;61.55;19.25;;;;;;;1.25;98.39;103956.47;5005695;28;20038;-73
2022/01/13 04:58:17;;;;;;;74.53;20.77;;;;;;;1.24;97.82;103952.91;5006381;28;20084;-73
2022/01/13 05:00:43;;;;;;;60.67;20.23;;;;;;;1.26;98.91;103945.88;5003427;28;20041;-74
2022/01/13 05:03:08;;;;;;;74.10;23.23;;;;;;;1.25;98.55;103953.81;5010232;28;20029;-74
2022/01/13 05:05:34;;;;;;;76.72;22.35;;;;;;;1.21;98.42;103952.84;5014173;28;20044;-73
2022/01/13 05:07:59;;;;;;;69.70;20.55;;;;;;;1.18;98.46;103958.97;5002464;28;20030;-73
2022/01/13 05:10:24;;;;;;;60.53;20.27;;;;;;;1.17;98.57;103957.22;5009153;28;20034;-73
2022/01/13 05:12:54;;;;;;;81.07;22.35;;;;;;;1.14;98.57;103950.97;5009881;28;20104;-73
2022/01/13 05:15:26;;;;;;;;;;;;;;;1.19;98.39;103959.91;5010592;28;20029;-74
2022/01/13 05:23:11;;;;;;;60.38;18.65;;;;;;;1.03;98.13;103954.34;5008105;28;20048;-73
2022/01/13 05:25:38;;;;;;;66.57;20.77;;;;;;;1.04;98.71;103960.53;5010494;28;20033;-73
2022/01/13 05:28:04;;;;;;;64.45;19.98;;;;;;;1.08;98.69;103966.78;5010806;28;20060;-73
2022/01/13 05:30:29;;;;;;;49.45;18.95;;;;;;;1.06;98.68;103961.44;5011383;28;20371;-73
2022/01/13 05:32:56;;;;;;;68.63;19.75;;;;;;;1.08;98.23;103961.47;5007689;28;20033;-73
2022/01/13 05:35:22;;;;;;;80.07;20.77;;;;;;;1.09;98.48;103961.50;5008616;28;20025;-73
2022/01/13 05:37:47;;;;;;;59.42;20.30;;;;;;;1.12;98.51;103963.31;5009374;28;20457;-73
2022/01/13 05:40:13;;;;;;;74.30;21.40;;;;;;;1.13;98.53;103965.06;4997538;28;20049;-73
2022/01/13 05:42:39;;;;;;;59.63;21.73;;;;;;;1.14;98.63;103956.25;5010277;28;20049;-73
2022/01/13 05:45:07;;;;;;;80.40;22.23;;;;;;;1.14;98.09;103958.91;5010411;28;20104;-73
2022/01/13 05:47:32;;;;;;;66.13;19.80;;;;;;;1.14;98.20;103962.47;5002767;28;20054;-73
2022/01/13 05:49:58;;;;;;;74.40;23.05;;;;;;;1.13;97.85;103962.41;4998944;28;20065;-73
2022/01/13 05:52:23;;;;;;;53.72;19.88;;;;;;;1.12;98.04;103963.31;4993270;28;20026;-73
2022/01/13 05:54:48;;;;;;;90.45;20.63;;;;;;;1.12;98.15;103958.88;5004737;28;20445;-73
2022/01/13 05:57:13;;;;;;;85.25;19.98;;;;;;;1.13;98.40;103965.06;5009563;28;20057;-73
2022/01/13 05:59:39;;;;;;;63.60;20.33;;;;;;;1.13;98.16;103967.72;5009777;28;20576;-73
2022/01/13 06:02:04;;;;;;;104.90;23.63;;;;;;;1.13;98.13;103967.72;5010460;28;20028;-73
2022/01/13 06:04:30;;;;;;;57.38;17.35;;;;;;;1.14;98.36;103959.81;5003676;28;20087;-73
2022/01/13 06:06:55;;;;;;;64.30;21.70;;;;;;;1.14;98.33;103959.81;5010131;28;20025;-73
2022/01/13 06:09:20;;;;;;;94.10;23.13;;;;;;;1.14;98.25;103954.53;5007511;28;20032;-73
2022/01/13 06:11:56;;;;;;;74.43;23.13;;;;;;;1.18;98.61;103960.75;5008087;28;20046;-73
2022/01/13 06:14:21;;;;;;;78.85;22.02;;;;;;;1.20;98.63;103959.00;4995308;28;20093;-73
2022/01/13 06:16:46;;;;;;;70.53;22.90;;;;;;;1.20;98.36;103956.34;5008804;28;20116;-73
2022/01/13 06:19:12;;;;;;;57.22;21.00;;;;;;;1.20;98.08;103961.66;4998045;28;20434;-73
2022/01/13 06:21:37;;;;;;;60.53;20.42;;;;;;;1.20;97.97;103951.06;5008424;28;20037;-73
2022/01/13 06:24:02;;;;;;;67.05;20.60;;;;;;;1.20;97.99;103943.09;5009141;28;20576;-73
2022/01/13 06:26:28;;;;;;;81.82;19.60;;;;;;;1.19;98.43;103944.88;4992937;28;20137;-73
2022/01/13 06:28:53;;;;;;;81.53;23.60;;;;;;;1.17;98.60;103941.31;4992112;28;20187;-73
2022/01/13 06:31:18;;;;;;;113.47;22.52;;;;;;;1.20;98.47;103936.06;5009104;28;20076;-73
2022/01/13 06:33:44;;;;;;;70.07;20.77;;;;;;;1.21;98.65;103943.13;5008189;28;20042;-73
2022/01/13 06:36:09;;;;;;;88.20;22.95;;;;;;;1.17;98.74;103933.38;5007106;28;20065;-73
2022/01/13 06:38:34;;;;;;;79.60;21.83;;;;;;;1.18;98.68;103937.78;5007373;28;20041;-73
2022/01/13 06:41:01;;;;;;;86.00;21.92;;;;;;;1.17;98.88;103941.31;5007619;28;20029;-74
2022/01/13 06:43:27;;;;;;;49.38;19.00;;;;;;;1.19;98.84;103944.88;5009091;28;20029;-73
2022/01/13 06:45:52;;;;;;;68.00;20.05;;;;;;;1.20;98.80;103940.47;4989730;28;20032;-73
2022/01/13 06:48:17;;;;;;;75.55;21.95;;;;;;;1.20;98.99;103945.75;5008226;28;20552;-74
2022/01/13 06:50:43;;;;;;;71.65;19.95;;;;;;;1.21;98.72;103955.50;5004495;28;20513;-73
2022/01/13 06:53:08;;;;;;;98.05;22.27;;;;;;;1.22;98.97;103950.22;5000925;28;20108;-73
2022/01/13 06:55:33;;;;;;;73.53;20.60;;;;;;;1.22;99.44;103950.22;5008098;28;20125;-74
2022/01/13 06:57:59;;;;;;;80.38;23.02;;;;;;;1.25;99.19;103952.03;5016071;28;20523;-73
2022/01/13 07:00:24;;;;;;;100.05;22.05;;;;;;;1.23;99.46;103951.13;5009463;28;20026;-73
2022/01/13 07:02:51;;;;;;;74.82;21.95;;;;;;;1.24;99.47;103952.91;4991086;28;20430;-73
2022/01/13 07:05:17;;;;;;;103.78;23.98;;;;;;;1.24;99.36;103954.66;5017093;28;20034;-74
2022/01/13 07:07:43;;;;;;;83.50;21.90;;;;;;;1.26;99.73;103952.91;5007962;28;20042;-74
2022/01/13 07:10:10;;;;;;;96.32;21.92;;;;;;;1.24;99.57;103947.59;4993110;28;20030;-74
2022/01/13 07:12:36;;;;;;;81.32;20.40;;;;;;;1.28;99.63;103943.25;5003318;28;20049;-74
2022/01/13 07:15:02;;;;;;;80.53;21.27;;;;;;;1.28;99.92;103945.91;5012470;28;20038;-74
2022/01/13 07:17:28;;;;;;;102.97;23.05;;;;;;;1.27;99.56;103946.75;5009511;28;20046;-73
2022/01/13 07:19:54;;;;;;;74.60;19.10;;;;;;;1.28;99.61;103944.13;4994100;28;21655;-73
2022/01/13 07:22:19;;;;;;;69.30;18.75;;;;;;;1.26;99.60;103944.97;5011693;28;20034;-73
2022/01/13 07:24:45;;;;;;;58.38;19.02;;;;;;;1.29;99.54;103950.31;4995592;28;20162;-73
2022/01/13 07:27:10;;;;;;;67.43;17.73;;;;;;;1.31;99.99;103959.19;4998991;28;20030;-73
2022/01/13 07:29:36;;;;;;;53.00;19.50;;;;;;;1.31;99.77;103957.44;5008660;28;20556;-73
2022/01/13 07:32:01;;;;;;;51.63;16.83;;;;;;;1.31;99.95;103952.13;5008340;28;20497;-73
2022/01/13 07:34:28;;;;;;;102.85;19.23;;;;;;;1.34;99.85;103952.19;5007426;28;20033;-73
2022/01/13 07:36:53;;;;;;;77.45;19.08;;;;;;;1.33;99.62;103947.75;5012555;28;20472;-73
2022/01/13 07:39:18;;;;;;;48.85;16.27;;;;;;;1.34;100.00;103953.94;4993758;28;20030;-73
2022/01/13 07:41:44;;;;;;;54.10;18.38;;;;;;;1.35;100.00;103943.38;5008195;28;20127;-73
2022/01/13 07:44:10;;;;;;;63.80;18.17;;;;;;;1.34;100.00;103949.53;4992110;28;20025;-73
2022/01/13 07:46:35;;;;;;;82.97;18.25;;;;;;;1.36;100.00;103953.09;5006189;28;20038;-73
2022/01/13 07:49:01;;;;;;;67.55;17.05;;;;;;;1.38;100.00;103953.13;5011220;28;20026;-73
2022/01/13 07:51:28;;;;;;;48.55;16.60;;;;;;;1.38;100.00;103966.38;4998498;28;20489;-73
2022/01/13 07:53:54;;;;;;;53.65;15.77;;;;;;;1.39;99.91;103958.44;4999417;28;20030;-73
2022/01/13 07:56:19;;;;;;;86.32;17.90;;;;;;;1.39;100.00;103962.84;4994705;28;20030;-73
2022/01/13 07:58:46;;;;;;;94.13;18.08;;;;;;;1.42;100.00;103948.75;4997540;28;20030;-73
2022/01/13 08:01:11;;;;;;;52.38;17.02;;;;;;;1.40;100.00;103957.56;5008128;28;20088;-73
2022/01/13 08:03:37;;;;;;;69.53;17.30;;;;;;;1.45;100.00;103967.34;5005654;28;20034;-74
2022/01/13 08:06:04;;;;;;;70.82;18.63;;;;;;;1.45;100.00;103968.25;5006887;28;20050;-74
2022/01/13 08:08:30;;;;;;;64.55;16.45;;;;;;;1.46;100.00;103961.19;4997858;28;20029;-74
2022/01/13 08:10:55;;;;;;;57.97;18.48;;;;;;;1.47;100.00;103960.31;5001292;28;20171;-73
2022/01/13 08:13:20;;;;;;;80.15;19.98;;;;;;;1.48;100.00;103967.38;4993366;28;20058;-73
2022/01/13 08:15:50;;;;;;;82.20;18.88;;;;;;;1.49;100.00;103963.88;4990276;28;20060;-73
2022/01/13 08:21:00;;;;;;;55.53;17.75;;;;;;;1.49;100.00;103979.78;5006136;28;20053;-74
2022/01/13 08:23:25;;;;;;;76.53;18.75;;;;;;;1.49;100.00;103975.38;4991417;28;20026;-74
2022/01/13 08:25:50;;;;;;;54.00;16.67;;;;;;;1.50;100.00;103969.19;4994411;28;20026;-73
2022/01/13 08:28:16;;;;;;;58.72;19.85;;;;;;;1.49;100.00;103979.78;5016089;28;20034;-73
2022/01/13 08:30:41;;;;;;;68.18;18.20;;;;;;;1.51;100.00;103972.75;5008103;28;20033;-73
2022/01/13 08:33:06;;;;;;;61.17;17.25;;;;;;;1.52;100.00;103977.19;4991884;28;20049;-73
2022/01/13 08:35:32;;;;;;;52.83;18.05;;;;;;;1.52;100.00;103985.13;4995207;28;20041;-73
2022/01/13 08:38:04;;;;;;;74.18;18.85;;;;;;;1.53;100.00;103982.50;5012602;28;20029;-73
2022/01/13 08:40:32;;;;;;;63.70;17.00;;;;;;;1.55;100.00;103980.78;4999759;28;20038;-73
2022/01/13 08:42:57;;;;;;;55.42;17.90;;;;;;;1.59;100.00;103983.47;4998493;28;20524;-73
2022/01/13 08:45:22;;;;;;;58.65;16.95;;;;;;;1.58;100.00;103979.91;4990234;28;20038;-73
2022/01/13 08:47:47;;;;;;;84.53;18.95;;;;;;;1.57;100.00;103980.81;5012151;28;20094;-73
2022/01/13 08:50:13;;;;;;;61.22;18.15;;;;;;;1.55;100.00;103985.16;4992881;28;20116;-73
2022/01/13 08:52:38;;;;;;;73.50;17.52;;;;;;;1.58;100.00;103990.50;4990459;28;20033;-73
2022/01/13 08:55:06;;;;;;;92.35;19.13;;;;;;;1.58;100.00;103993.16;4993180;28;20232;-73
2022/01/13 08:57:32;;;;;;;72.88;19.88;;;;;;;1.60;100.00;103988.81;5019891;28;20037;-73
2022/01/13 08:59:57;;;;;;;51.38;16.02;;;;;;;1.62;100.00;103984.41;4989900;28;20599;-73
2022/01/13 09:02:24;;;;;;;54.30;16.63;;;;;;;1.62;100.00;103995.00;4997809;28;20029;-73
2022/01/13 09:04:50;;;;;;;77.20;17.83;;;;;;;1.63;100.00;103999.44;5012087;28;20026;-73
2022/01/13 09:07:15;;;;;;;79.80;18.92;;;;;;;1.64;100.00;103997.66;5011774;28;20417;-73
2022/01/13 09:09:40;;;;;;;62.78;17.70;;;;;;;1.64;100.00;104006.53;5016802;28;20059;-73
2022/01/13 09:12:06;;;;;;;98.40;19.90;;;;;;;1.66;100.00;104010.09;5023099;28;20042;-73
2022/01/13 09:14:32;;;;;;;68.50;18.60;;;;;;;1.67;100.00;104006.59;5010342;28;20032;-73
2022/01/13 09:16:58;;;;;;;73.38;21.30;;;;;;;1.69;100.00;104006.59;5006024;28;20477;-73
2022/01/13 09:19:24;;;;;;;87.38;18.88;;;;;;;1.67;100.00;104014.53;5016412;28;20033;-73
2022/01/13 09:21:49;;;;;;;73.97;18.30;;;;;;;1.70;100.00;104006.63;5013788;28;20163;-73
2022/01/13 09:24:17;;;;;;;76.15;20.25;;;;;;;1.74;100.00;104018.16;5010681;28;21147;-73
2022/01/13 09:26:43;;;;;;;63.78;18.08;;;;;;;1.78;100.00;104016.47;4989727;28;20048;-73
2022/01/13 09:29:10;;;;;;;77.30;17.90;;;;;;;1.80;100.00;104018.28;5005353;28;20144;-73
2022/01/13 09:31:37;;;;;;;52.70;17.77;;;;;;;1.79;100.00;104015.56;5019304;28;20090;-73
2022/01/13 09:34:03;;;;;;;49.33;17.83;;;;;;;1.80;100.00;104020.91;4991103;28;20612;-73
2022/01/13 09:36:30;;;;;;;63.55;18.48;;;;;;;1.80;100.00;104017.34;4987623;28;20398;-73
2022/01/13 09:38:57;;;;;;;65.18;17.52;;;;;;;1.79;100.00;104020.88;4988279;28;20073;-73
2022/01/13 09:41:26;;;;;;;62.05;17.20;;;;;;;1.78;100.00;104013.81;5003934;28;20548;-73
2022/01/13 09:43:52;;;;;;;52.88;19.00;;;;;;;1.79;100.00;104016.47;5005538;28;20104;-73
2022/01/13 09:46:17;;;;;;;63.45;18.80;;;;;;;1.77;100.00;104012.00;5010843;28;20108;-73
2022/01/13 09:48:43;;;;;;;79.60;18.25;;;;;;;1.78;100.00;104011.16;5001927;28;20030;-73
2022/01/13 09:51:09;;;;;;;55.70;18.67;;;;;;;1.80;100.00;104006.75;5004251;28;20183;-73
2022/01/13 09:53:35;;;;;;;44.42;17.25;;;;;;;1.81;100.00;103997.94;4986853;28;20260;-73
2022/01/13 09:56:02;;;;;;;51.58;18.50;;;;;;;1.81;100.00;104009.41;5011884;28;20037;-73
2022/01/13 09:58:27;;;;;;;65.53;18.67;;;;;;;1.83;100.00;104009.44;5004996;28;20038;-73
2022/01/13 10:00:52;;;;;;;68.88;19.05;;;;;;;1.84;100.00;104006.81;5015884;28;20034;-74
2022/01/13 10:03:25;;;;;;;63.28;18.05;;;;;;;1.86;100.00;104013.03;5005597;28;20026;-74
2022/01/13 10:05:57;;;;;;;59.78;21.27;;;;;;;1.86;100.00;104014.78;5005549;28;20038;-74
2022/01/13 10:08:39;;;;;;;95.47;21.00;;;;;;;1.88;100.00;104013.06;4989174;28;20029;-73
2022/01/13 10:11:24;;;;;;;51.42;17.77;;;;;;;1.94;100.00;104010.50;5013792;28;20041;-73
2022/01/13 10:16:53;;;;;;;52.65;16.60;;;;;;;1.94;100.00;104010.50;5004415;28;20462;-73
2022/01/13 10:19:26;;;;;;;52.53;16.58;;;;;;;2.00;100.00;104018.53;5004438;28;20103;-73
2022/01/13 10:22:02;;;;;;;114.10;19.65;;;;;;;1.95;100.00;104012.28;5004519;28;20041;-73
2022/01/13 10:24:29;;;;;;;55.88;19.13;;;;;;;2.00;100.00;104009.69;5006901;28;20115;-73
2022/01/13 10:27:08;;;;;;;71.70;19.02;;;;;;;1.99;100.00;104015.84;5004542;28;20033;-73
2022/01/13 10:29:37;;;;;;;45.47;16.65;;;;;;;2.00;100.00;104013.22;5003492;28;20053;-73
2022/01/13 10:32:03;;;;;;;42.63;16.75;;;;;;;2.03;100.00;104015.03;5003984;28;20038;-73
2022/01/13 10:34:29;;;;;;;69.30;18.50;;;;;;;2.05;100.00;104016.84;5005198;28;20033;-73
2022/01/13 10:37:03;;;;;;;60.63;19.65;;;;;;;2.09;100.00;104023.06;5001157;28;21320;-73
2022/01/13 10:39:53;;;;;;;42.65;18.67;;;;;;;2.13;100.00;104016.06;4986469;28;20026;-73
2022/01/13 10:45:06;;;;;;;49.47;16.23;;;;;;;2.14;100.00;104012.50;5005140;28;20087;-72
2022/01/13 10:47:31;;;;;;;;;;;;;;;2.23;100.00;104012.66;4986999;28;20113;-72
2022/01/13 10:50:11;;;;;;;113.00;19.50;;;;;;;2.18;100.00;104017.00;5007796;28;19928;-72
2022/01/13 10:52:37;;;;;;;77.15;21.30;;;;;;;2.19;100.00;104017.00;5001603;28;20041;-73
2022/01/13 10:55:09;;;;;;;43.28;17.35;;;;;;;2.19;100.00;104021.44;4991125;28;20025;-73
2022/01/13 10:57:37;;;;;;;53.45;18.90;;;;;;;2.15;100.00;104015.19;4987851;28;20559;-72
2022/01/13 11:00:17;;;;;;;46.05;17.67;;;;;;;2.19;100.00;104002.88;4999974;28;20479;-73
2022/01/13 11:03:01;;;;;;;61.72;17.15;;;;;;;2.21;100.00;103994.06;5004515;28;20045;-73
2022/01/13 11:05:28;;;;;;;48.25;17.15;;;;;;;2.23;100.00;103991.44;4988531;28;20040;-73
2022/01/13 11:07:54;;;;;;;46.47;16.95;;;;;;;2.22;99.89;103995.81;4984703;28;20041;-73
2022/01/13 11:10:21;;;;;;;53.00;17.15;;;;;;;2.24;99.71;103987.88;5007291;28;20025;-73
2022/01/13 11:12:54;;;;;;;46.67;17.55;;;;;;;2.24;99.86;103993.19;4989073;28;20034;-73
2022/01/13 11:15:20;;;;;;;40.38;16.55;;;;;;;2.23;100.00;103987.00;5002818;28;20068;-73
2022/01/13 11:17:45;;;;;;;34.40;15.55;;;;;;;2.25;100.00;103989.66;4988698;28;20437;-73
2022/01/13 11:20:17;;;;;;;49.00;17.85;;;;;;;2.25;100.00;103979.06;5004115;28;20433;-73
2022/01/13 11:22:45;;;;;;;47.50;17.63;;;;;;;2.25;99.69;103979.94;5005640;28;20448;-73
2022/01/13 11:25:13;;;;;;;53.53;16.80;;;;;;;2.30;100.00;103976.44;5007233;28;20034;-73
2022/01/13 11:27:39;;;;;;;41.72;16.60;;;;;;;2.32;99.89;103974.72;5003233;28;20021;-73
2022/01/13 11:30:08;;;;;;;48.90;15.55;;;;;;;2.32;99.95;103959.69;5002729;28;20026;-73
2022/01/13 11:32:34;;;;;;;39.53;16.50;;;;;;;2.36;99.95;103965.94;4992330;28;20439;-73
2022/01/13 11:35:00;;;;;;;58.97;18.38;;;;;;;2.38;99.94;103965.03;4986984;28;20852;-73
2022/01/13 11:37:30;;;;;;;42.10;18.10;;;;;;;2.41;99.86;103961.53;4985402;28;20116;-73
2022/01/13 11:39:56;;;;;;;46.85;18.63;;;;;;;2.41;99.93;103956.22;5003921;28;20080;-73
2022/01/13 11:42:22;;;;;;;51.47;17.02;;;;;;;2.40;99.86;103960.66;5002885;28;20417;-72
2022/01/13 11:45:11;;;;;;;46.63;16.98;;;;;;;2.45;99.72;103966.91;5008664;28;20034;-73
2022/01/13 11:47:37;;;;;;;50.92;17.42;;;;;;;2.43;99.45;103962.44;4984397;28;20041;-73
2022/01/13 11:50:18;;;;;;;59.63;17.67;;;;;;;2.42;99.71;103966.00;4994001;28;20046;-73